createdAt,value
2023-04-04T00:00:55.803Z,2.50
2023-04-04T00:05:57.417Z,2.40
2023-04-04T00:11:00.566Z,2.17
2023-04-04T00:16:02.334Z,2.03
2023-04-04T00:21:04.021Z,2.00
2023-04-04T00:26:05.689Z,2.10
2023-04-04T00:31:07.489Z,2.40
2023-04-04T00:36:09.156Z,2.20
2023-04-04T00:41:11.490Z,2.20
2023-04-04T00:46:15.157Z,1.63
2023-04-04T00:51:17.076Z,2.03
2023-04-04T00:56:19.946Z,2.00
2023-04-04T01:01:21.656Z,1.93
2023-04-04T01:06:23.462Z,2.23
2023-04-04T01:11:27.350Z,1.93
2023-04-04T01:16:29.375Z,1.80
2023-04-04T01:21:31.232Z,1.97
2023-04-04T01:26:33.170Z,1.77
2023-04-04T01:31:43.144Z,2.20
2023-04-04T01:37:03.279Z,2.20
2023-04-04T01:42:08.269Z,1.97
2023-04-04T01:47:13.116Z,1.90
2023-04-04T01:52:15.618Z,2.27
2023-04-04T01:57:17.501Z,1.93
2023-04-04T02:02:19.412Z,2.13
2023-04-04T02:07:21.064Z,2.23
2023-04-04T02:12:23.723Z,2.13
2023-04-04T02:17:28.467Z,2.40
2023-04-04T02:22:30.579Z,2.20
2023-04-04T02:27:32.365Z,2.10
2023-04-04T02:32:34.763Z,2.17
2023-04-04T02:37:36.602Z,2.50
2023-04-04T02:42:45.583Z,2.57
2023-04-04T02:47:51.495Z,2.20
2023-04-04T02:53:01.434Z,2.30
2023-04-04T02:58:06.203Z,2.23
2023-04-04T03:03:08.187Z,2.30
2023-04-04T03:08:16.195Z,2.30
2023-04-04T03:13:17.840Z,2.10
2023-04-04T03:18:20.939Z,2.60
2023-04-04T03:23:22.630Z,2.30
2023-04-04T03:28:24.307Z,2.57
2023-04-04T03:33:27.415Z,2.13
2023-04-04T03:38:29.125Z,2.20
2023-04-04T03:43:31.529Z,2.80
2023-04-04T03:48:34.193Z,2.67
2023-04-04T03:53:38.383Z,2.70
2023-04-04T03:58:40.099Z,2.30
2023-04-04T04:03:44.820Z,2.40
2023-04-04T04:08:46.741Z,2.37
2023-04-04T04:13:48.316Z,2.10
2023-04-04T04:18:49.955Z,2.10
2023-04-04T04:23:59.859Z,2.40
2023-04-04T04:29:01.559Z,2.40
2023-04-04T04:34:10.879Z,2.80
2023-04-04T04:39:14.776Z,2.90
2023-04-04T04:44:29.259Z,2.40
2023-04-04T04:49:32.424Z,2.47
2023-04-04T04:54:39.521Z,2.90
2023-04-04T04:59:41.480Z,2.70
2023-04-04T05:04:45.599Z,2.57
2023-04-04T05:09:52.500Z,2.20
2023-04-04T05:14:57.250Z,2.57
2023-04-04T05:19:59.677Z,2.63
2023-04-04T05:25:01.607Z,2.57
2023-04-04T05:30:03.518Z,2.67
2023-04-04T05:35:16.593Z,2.63
2023-04-04T05:40:18.392Z,2.43
2023-04-04T05:45:26.003Z,2.67
2023-04-04T05:50:28.198Z,2.60
2023-04-04T05:55:36.044Z,2.60
2023-04-04T06:00:39.330Z,4.53
2023-04-04T06:05:44.336Z,3.10
2023-04-04T06:10:47.125Z,2.80
2023-04-04T06:15:48.839Z,2.30
2023-04-04T06:20:50.746Z,2.40
2023-04-04T06:25:53.513Z,2.70
2023-04-04T06:30:56.164Z,2.20
2023-04-04T06:36:04.501Z,2.80
2023-04-04T06:41:06.674Z,2.37
2023-04-04T06:46:09.053Z,2.90
2023-04-04T06:51:12.103Z,3.13
2023-04-04T06:56:18.799Z,2.80
2023-04-04T07:01:20.466Z,2.93
2023-04-04T07:06:25.814Z,2.60
2023-04-04T07:11:29.166Z,2.50
2023-04-04T07:16:31.595Z,2.50
2023-04-04T07:21:33.220Z,2.47
2023-04-04T07:26:35.143Z,2.33
2023-04-04T07:31:36.881Z,2.53
2023-04-04T07:36:38.530Z,2.70
2023-04-04T07:41:41.096Z,2.60
2023-04-04T07:46:42.722Z,2.47
2023-04-04T07:51:44.711Z,2.47
2023-04-04T07:56:47.437Z,2.97
2023-04-04T08:01:49.023Z,1.93
2023-04-04T08:06:50.644Z,1.80
2023-04-04T08:11:52.775Z,2.10
2023-04-04T08:16:54.465Z,2.10
2023-04-04T08:21:56.776Z,1.57
2023-04-04T08:27:05.311Z,1.40
2023-04-04T08:32:07.581Z,1.83
2023-04-04T08:37:09.681Z,1.60
2023-04-04T08:42:12.376Z,2.10
2023-04-04T08:47:14.912Z,1.67
2023-04-04T08:52:19.264Z,1.83
2023-04-04T08:57:21.153Z,1.50
2023-04-04T09:03:10.448Z,1.50
2023-04-04T09:08:12.899Z,1.80
2023-04-04T09:13:16.498Z,1.67
2023-04-04T09:18:19.057Z,1.20
2023-04-04T09:23:21.379Z,1.60
2023-04-04T09:28:23.589Z,1.20
2023-04-04T09:33:25.914Z,1.70
2023-04-04T09:38:29.510Z,1.23
2023-04-04T09:43:32.328Z,1.50
2023-04-04T09:48:37.040Z,1.30
2023-04-04T09:53:39.927Z,1.33
2023-04-04T09:58:55.984Z,1.40
2023-04-04T10:04:05.848Z,1.50
2023-04-04T10:09:08.151Z,1.23
2023-04-04T10:14:09.752Z,1.30
2023-04-04T10:19:12.505Z,1.20
2023-04-04T10:24:14.201Z,1.00
2023-04-04T10:29:15.905Z,1.17
2023-04-04T10:34:20.780Z,1.37
2023-04-04T10:39:27.641Z,1.50
2023-04-04T10:44:33.524Z,1.43
2023-04-04T10:49:36.742Z,1.20
2023-04-04T10:54:38.393Z,1.20
2023-04-04T11:00:02.455Z,1.33
2023-04-04T11:05:12.860Z,1.30
2023-04-04T11:10:16.765Z,1.13
2023-04-04T11:15:21.473Z,1.23
2023-04-04T11:20:28.417Z,1.37
2023-04-04T11:25:33.465Z,1.30
2023-04-04T11:30:44.107Z,1.13
2023-04-04T11:35:50.197Z,1.30
2023-04-04T11:40:55.204Z,1.20
2023-04-04T11:46:07.959Z,1.43
2023-04-04T11:51:11.540Z,1.33
2023-04-04T11:56:16.081Z,1.50
2023-04-04T12:01:19.160Z,1.10
2023-04-04T12:06:21.030Z,1.27
2023-04-04T12:11:26.075Z,1.10
2023-04-04T12:16:28.281Z,1.33
2023-04-04T12:21:33.281Z,1.20
2023-04-04T12:26:39.891Z,1.20
2023-04-04T12:31:43.359Z,1.53
2023-04-04T12:36:49.031Z,1.50
2023-04-04T12:41:53.640Z,1.53
2023-04-04T12:46:58.989Z,1.40
2023-04-04T12:52:04.523Z,1.63
2023-04-04T12:57:07.516Z,1.70
2023-04-04T13:02:12.509Z,1.23
2023-04-04T13:07:28.749Z,1.40
2023-04-04T13:12:59.456Z,1.50
2023-04-04T13:18:14.420Z,1.00
2023-04-04T13:23:16.328Z,1.13
2023-04-04T13:28:17.988Z,1.23
2023-04-04T13:33:19.596Z,1.37
2023-04-04T13:38:21.216Z,1.40
2023-04-04T13:43:22.812Z,1.17
2023-04-04T13:48:24.405Z,1.10
2023-04-04T13:53:26.213Z,1.37
2023-04-04T13:58:27.804Z,1.10
2023-04-04T14:03:30.397Z,1.27
2023-04-04T14:08:33.771Z,1.37
2023-04-04T14:13:36.934Z,1.10
2023-04-04T14:18:38.549Z,1.60
2023-04-04T14:23:40.231Z,1.40
2023-04-04T14:28:42.008Z,1.48
2023-04-04T14:33:43.681Z,1.40
2023-04-04T14:38:45.261Z,1.40
2023-04-04T14:43:46.937Z,1.20
2023-04-04T14:48:48.942Z,5.15
2023-04-04T14:53:52.504Z,1.65
2023-04-04T14:58:54.694Z,1.58
2023-04-04T15:03:56.594Z,1.13
2023-04-04T15:08:58.477Z,1.17
2023-04-04T15:14:00.228Z,1.30
2023-04-04T15:19:01.972Z,1.30
2023-04-04T15:24:03.758Z,1.08
2023-04-04T15:29:05.357Z,1.80
2023-04-04T15:34:07.229Z,2.10
2023-04-04T15:39:11.093Z,1.30
2023-04-04T15:44:12.715Z,1.10
2023-04-04T15:49:14.908Z,1.10
2023-04-04T15:54:16.521Z,1.42
2023-04-04T15:59:18.181Z,1.65
2023-04-04T16:04:19.899Z,1.40
2023-04-04T16:09:21.576Z,2.47
2023-04-04T16:14:23.694Z,1.27
2023-04-04T16:19:25.293Z,1.30
2023-04-04T16:24:27.495Z,1.60
2023-04-04T16:29:31.167Z,3.27
2023-04-04T16:34:32.927Z,1.42
2023-04-04T16:39:37.694Z,1.40
2023-04-04T16:44:39.292Z,1.85
2023-04-04T16:49:41.551Z,2.63
2023-04-04T16:54:43.316Z,2.05
2023-04-04T16:59:44.941Z,1.50
2023-04-04T17:04:46.585Z,1.30
2023-04-04T17:09:48.843Z,1.48
2023-04-04T17:14:50.607Z,1.80
2023-04-04T17:19:52.413Z,1.85
2023-04-04T17:24:54.066Z,2.35
2023-04-04T17:29:55.640Z,1.65
2023-04-04T17:34:57.296Z,1.90
2023-04-04T17:40:04.191Z,1.60
2023-04-04T17:45:06.852Z,2.20
2023-04-04T17:50:08.914Z,1.50
2023-04-04T17:55:11.348Z,2.80
2023-04-04T18:00:13.575Z,1.60
2023-04-04T18:05:15.282Z,2.20
2023-04-04T18:10:17.689Z,1.90
2023-04-04T18:15:19.830Z,2.13
2023-04-04T18:20:33.917Z,2.50
2023-04-04T18:25:43.692Z,2.50
2023-04-04T18:30:45.841Z,2.50
2023-04-04T18:35:47.623Z,2.00
2023-04-04T18:40:49.268Z,2.03
2023-04-04T18:45:51.054Z,2.13
2023-04-04T18:50:53.106Z,1.80
2023-04-04T18:55:58.212Z,1.67
2023-04-04T19:01:03.345Z,1.83
2023-04-04T19:06:06.416Z,2.07
2023-04-04T19:11:09.007Z,4.90
2023-04-04T19:16:10.650Z,2.30
2023-04-04T19:21:12.310Z,2.00
2023-04-04T19:26:16.250Z,1.90
2023-04-04T19:31:23.812Z,1.73
2023-04-04T19:36:26.240Z,1.70
2023-04-04T19:41:33.900Z,1.80
2023-04-04T19:46:35.682Z,1.90
2023-04-04T19:51:39.268Z,1.90
2023-04-04T19:56:41.374Z,2.00
2023-04-04T20:01:53.761Z,2.13
2023-04-04T20:07:01.569Z,1.97
2023-04-04T20:12:03.753Z,2.80
2023-04-04T20:17:05.330Z,2.37
2023-04-04T20:22:07.301Z,3.05
2023-04-04T20:27:10.433Z,3.00
2023-04-04T20:32:12.086Z,2.20
2023-04-04T20:37:22.081Z,2.00
2023-04-04T20:42:30.295Z,2.10
2023-04-04T20:47:51.103Z,1.90
2023-04-04T20:52:56.400Z,2.30
2023-04-04T20:58:06.447Z,2.00
2023-04-04T21:03:32.537Z,1.93
2023-04-04T21:08:47.687Z,2.47
2023-04-04T21:13:49.313Z,2.50
2023-04-04T21:18:56.873Z,2.00
2023-04-04T21:23:59.965Z,2.23
2023-04-04T21:29:04.550Z,3.08
2023-04-04T21:34:14.847Z,4.05
2023-04-04T21:39:23.251Z,3.80
2023-04-04T21:44:26.053Z,3.67
2023-04-04T21:49:28.037Z,3.70
2023-04-04T21:54:29.597Z,3.08
2023-04-04T21:59:31.284Z,3.00
2023-04-04T22:04:33.024Z,2.50
2023-04-04T22:09:34.629Z,2.67
2023-04-04T22:14:42.774Z,3.20
2023-04-04T22:19:46.714Z,2.97
2023-04-04T22:24:50.956Z,2.90
2023-04-04T22:29:52.536Z,3.10
2023-04-04T22:34:54.352Z,2.72
2023-04-04T22:39:56.013Z,2.73
2023-04-04T22:44:57.595Z,3.13
2023-04-04T22:50:04.590Z,2.90
2023-04-04T22:55:07.418Z,3.13
2023-04-04T23:00:11.236Z,3.13
2023-04-04T23:05:14.395Z,3.50
2023-04-04T23:10:16.213Z,3.20
2023-04-04T23:15:17.801Z,3.30
2023-04-04T23:20:19.501Z,3.47
2023-04-04T23:25:21.120Z,3.20
2023-04-04T23:30:26.104Z,3.40
2023-04-04T23:35:27.759Z,3.17
2023-04-04T23:40:29.360Z,3.30
2023-04-04T23:45:33.580Z,3.60
2023-04-04T23:50:35.198Z,3.40
2023-04-04T23:55:37.053Z,3.67
